Time;durP1;ratioP1;P1;durP2;ratioP2;P2;SDS_P1;SDS_P2;PMS_P1;PMS_P2;Temp;Humidity;BMP_temperature;BMP_pressure;BME280_temperature;BME280_humidity;BME280_pressure;Samples;Min_cycle;Max_cycle;Signal;HPM_P1;HPM_P2
2022/05/13 00:01:55;;;;;;;117.63;107.03;;;12.70;76.00;;;;;;4975955;28;20059;-74
2022/05/13 00:04:22;;;;;;;117.68;107.10;;;12.70;76.60;;;;;;4958167;28;20142;-74
2022/05/13 00:06:49;;;;;;;119.30;108.50;;;12.70;77.00;;;;;;4957951;28;20052;-74
2022/05/13 00:09:16;;;;;;;118.45;107.63;;;12.70;77.60;;;;;;4958065;28;20142;-74
2022/05/13 00:11:43;;;;;;;116.28;105.47;;;12.60;78.30;;;;;;4957540;28;20506;-74
2022/05/13 00:14:11;;;;;;;119.13;108.32;;;12.60;79.00;;;;;;4957490;28;20079;-74
2022/05/13 00:16:38;;;;;;;117.28;106.40;;;12.60;79.40;;;;;;4958004;28;20047;-74
2022/05/13 00:19:10;;;;;;;118.45;107.85;;;12.60;79.70;;;;;;4974993;28;20051;-74
2022/05/13 00:21:38;;;;;;;117.60;107.03;;;12.60;80.20;;;;;;4958258;28;20063;-74
2022/05/13 00:24:05;;;;;;;115.70;105.18;;;12.60;80.60;;;;;;4958578;28;20051;-74
2022/05/13 00:26:32;;;;;;;127.82;115.88;;;12.60;81.10;;;;;;5014823;22;20051;-76
2022/05/13 00:28:59;;;;;;;117.45;106.55;;;12.50;81.40;;;;;;4999008;28;20510;-74
2022/05/13 00:31:26;;;;;;;118.07;107.63;;;12.50;81.60;;;;;;5015339;28;20057;-74
2022/05/13 00:33:53;;;;;;;116.32;105.43;;;12.50;82.00;;;;;;5016724;28;20493;-74
2022/05/13 00:36:22;;;;;;;116.60;106.00;;;12.50;82.40;;;;;;5016466;28;20053;-74
2022/05/13 00:38:49;;;;;;;115.93;105.22;;;12.50;82.80;;;;;;5015952;28;20053;-74
2022/05/13 00:41:16;;;;;;;115.38;104.82;;;12.50;83.10;;;;;;5016141;28;20979;-74
2022/05/13 00:43:46;;;;;;;115.47;104.78;;;12.50;83.50;;;;;;5016417;28;20116;-74
2022/05/13 00:46:14;;;;;;;116.07;105.20;;;12.50;83.90;;;;;;5016368;28;20054;-74
2022/05/13 00:48:41;;;;;;;116.43;105.93;;;12.50;84.20;;;;;;5015687;28;20045;-74
2022/05/13 00:51:10;;;;;;;117.10;106.13;;;12.50;84.40;;;;;;5034131;28;20045;-74
2022/05/13 00:53:39;;;;;;;114.82;104.40;;;12.40;84.60;;;;;;5016259;28;20050;-74
2022/05/13 00:56:07;;;;;;;115.75;105.25;;;12.40;84.70;;;;;;5033509;28;20062;-74
2022/05/13 00:58:38;;;;;;;114.57;104.38;;;12.40;85.10;;;;;;5015511;28;20046;-74
2022/05/13 01:01:06;;;;;;;114.78;104.22;;;12.40;85.20;;;;;;4999908;28;20474;-74
2022/05/13 01:03:33;;;;;;;116.57;105.97;;;12.40;85.10;;;;;;5015764;28;20054;-74
2022/05/13 01:06:05;;;;;;;115.45;105.03;;;12.40;85.50;;;;;;5016010;28;20439;-74
2022/05/13 01:08:33;;;;;;;117.05;106.63;;;12.40;85.60;;;;;;5033327;28;20073;-74
2022/05/13 01:11:05;;;;;;;117.60;106.63;;;12.40;85.70;;;;;;5015669;28;20054;-74
2022/05/13 01:13:34;;;;;;;115.93;105.13;;;12.40;85.60;;;;;;5015413;28;20058;-74
2022/05/13 01:16:01;;;;;;;116.13;105.38;;;12.40;85.50;;;;;;5015771;28;20502;-74
2022/05/13 01:18:31;;;;;;;117.53;106.72;;;12.40;85.40;;;;;;5015483;28;20575;-74
2022/05/13 01:20:59;;;;;;;116.30;105.60;;;12.30;85.50;;;;;;5014870;28;20586;-74
2022/05/13 01:23:31;;;;;;;117.68;106.97;;;12.30;85.50;;;;;;5015806;28;20053;-74
2022/05/13 01:26:01;;;;;;;115.15;104.45;;;12.30;85.60;;;;;;5015709;28;20053;-74
2022/05/13 01:28:31;;;;;;;115.95;105.25;;;12.30;85.80;;;;;;4998707;28;20050;-74
2022/05/13 01:31:01;;;;;;;117.25;106.35;;;12.30;85.90;;;;;;5015832;28;20112;-74
2022/05/13 01:33:30;;;;;;;115.03;104.40;;;12.30;86.10;;;;;;5015816;28;20396;-74
2022/05/13 01:35:59;;;;;;;115.95;104.95;;;12.30;86.30;;;;;;5015417;28;20137;-74
2022/05/13 01:38:29;;;;;;;118.18;107.18;;;12.30;86.40;;;;;;5032922;28;20058;-74
2022/05/13 01:40:56;;;;;;;117.30;106.32;;;12.20;86.40;;;;;;5015536;28;20129;-74
2022/05/13 01:43:25;;;;;;;116.80;105.97;;;12.20;86.60;;;;;;5032839;28;20058;-74
2022/05/13 01:45:52;;;;;;;117.25;106.38;;;12.20;86.80;;;;;;5033006;28;20128;-74
2022/05/13 01:48:19;;;;;;;118.63;107.53;;;12.20;86.90;;;;;;5015367;28;20057;-74
2022/05/13 01:50:46;;;;;;;117.32;106.55;;;12.20;87.00;;;;;;5032780;28;20183;-74
2022/05/13 01:53:14;;;;;;;117.35;106.45;;;12.20;87.20;;;;;;5033164;28;20054;-74
2022/05/13 01:55:43;;;;;;;116.75;106.10;;;12.20;87.40;;;;;;5015056;28;20135;-74
2022/05/13 01:58:11;;;;;;;118.32;107.55;;;12.20;87.60;;;;;;5014462;28;20057;-74
2022/05/13 02:00:38;;;;;;;118.40;107.38;;;12.20;87.80;;;;;;5014953;28;20050;-74
2022/05/13 02:05:49;;;;;;;117.57;106.40;;;12.20;88.00;;;;;;4998767;28;20050;-74
2022/05/13 02:08:16;;;;;;;118.95;107.82;;;12.20;88.20;;;;;;5032245;28;20455;-74
2022/05/13 02:10:45;;;;;;;116.55;106.00;;;12.20;88.60;;;;;;5032878;28;20054;-74
2022/05/13 02:13:13;;;;;;;117.85;106.55;;;12.20;88.90;;;;;;5015057;28;20081;-74
2022/05/13 02:15:40;;;;;;;118.38;107.30;;;12.20;88.80;;;;;;5014908;28;20068;-74
2022/05/13 02:18:07;;;;;;;117.38;106.32;;;12.20;89.20;;;;;;5032579;28;20422;-74
2022/05/13 02:20:35;;;;;;;118.65;107.35;;;12.20;89.60;;;;;;5033120;28;20542;-74
2022/05/13 02:23:02;;;;;;;117.78;106.85;;;12.20;89.60;;;;;;5014898;28;20065;-74
2022/05/13 02:25:29;;;;;;;116.38;105.50;;;12.20;90.00;;;;;;5014992;28;20050;-74
2022/05/13 02:27:58;;;;;;;119.32;108.03;;;12.20;90.00;;;;;;5031996;28;20141;-74
2022/05/13 02:30:25;;;;;;;116.68;105.38;;;12.20;90.10;;;;;;5015114;28;20405;-74
2022/05/13 02:32:52;;;;;;;117.47;106.47;;;12.20;90.10;;;;;;5017241;28;20536;-74
2022/05/13 02:35:19;;;;;;;118.25;106.88;;;12.20;90.20;;;;;;5017837;28;20136;-74
2022/05/13 02:37:46;;;;;;;116.68;105.45;;;12.20;90.30;;;;;;5017603;28;20057;-74
2022/05/13 02:40:15;;;;;;;115.30;104.32;;;12.20;90.40;;;;;;5018121;28;20056;-74
2022/05/13 02:42:41;;;;;;;117.05;106.05;;;12.20;90.40;;;;;;5035796;28;20085;-74
2022/05/13 02:45:11;;;;;;;115.57;104.55;;;12.20;90.40;;;;;;5036031;28;20050;-74
2022/05/13 02:47:39;;;;;;;115.35;104.63;;;12.20;90.50;;;;;;5001249;28;20480;-74
2022/05/13 02:50:21;;;;;;;116.70;105.43;;;12.20;90.60;;;;;;5035719;28;20077;-74
2022/05/13 02:52:50;;;;;;;117.00;106.00;;;12.20;90.70;;;;;;5017959;28;20412;-74
2022/05/13 02:55:19;;;;;;;117.00;106.00;;;12.20;90.80;;;;;;5017869;28;20049;-74
2022/05/13 02:57:46;;;;;;;118.28;106.97;;;12.20;90.80;;;;;;5035564;28;20471;-74
2022/05/13 03:00:16;;;;;;;117.30;105.85;;;12.10;90.80;;;;;;5035823;28;20056;-74
2022/05/13 03:02:44;;;;;;;115.05;104.20;;;12.10;90.90;;;;;;5017898;28;20054;-74
2022/05/13 03:05:11;;;;;;;114.00;103.13;;;12.20;90.90;;;;;;5017849;28;20053;-74
2022/05/13 03:07:38;;;;;;;115.97;105.00;;;12.20;91.00;;;;;;5035518;28;20785;-74
2022/05/13 03:10:08;;;;;;;116.38;105.38;;;12.10;91.00;;;;;;5000927;28;20061;-74
2022/05/13 03:12:35;;;;;;;117.20;105.80;;;12.10;91.20;;;;;;5017985;28;20085;-74
2022/05/13 03:15:03;;;;;;;116.88;105.60;;;12.10;91.30;;;;;;5017346;28;20065;-74
2022/05/13 03:17:31;;;;;;;115.78;104.72;;;12.10;91.40;;;;;;5017326;28;20078;-74
2022/05/13 03:19:58;;;;;;;116.03;104.88;;;12.10;91.50;;;;;;5017503;28;20500;-74
2022/05/13 03:22:25;;;;;;;115.82;104.63;;;12.10;91.50;;;;;;5016986;28;20428;-74
2022/05/13 03:24:52;;;;;;;114.97;103.97;;;12.10;91.60;;;;;;5034854;28;20060;-74
2022/05/13 03:27:19;;;;;;;116.93;106.10;;;12.10;91.70;;;;;;5016214;28;20080;-74
2022/05/13 03:29:46;;;;;;;115.60;104.90;;;12.10;91.70;;;;;;5017155;28;20057;-73
2022/05/13 03:32:13;;;;;;;116.45;105.20;;;12.10;91.80;;;;;;5017344;28;20551;-74
2022/05/13 03:34:41;;;;;;;114.78;103.85;;;12.10;91.90;;;;;;5017318;28;20133;-74
2022/05/13 03:37:08;;;;;;;118.35;106.68;;;12.10;91.90;;;;;;5034786;28;20058;-74
2022/05/13 03:39:35;;;;;;;115.15;104.07;;;12.10;92.10;;;;;;5034919;28;20057;-74
2022/05/13 03:42:03;;;;;;;115.00;104.05;;;12.00;92.10;;;;;;5016838;28;20053;-74
2022/05/13 03:44:31;;;;;;;118.65;107.15;;;12.00;92.20;;;;;;5016435;28;20057;-74
2022/05/13 03:46:58;;;;;;;118.70;107.32;;;12.10;92.40;;;;;;5016906;28;20054;-74
2022/05/13 03:49:25;;;;;;;116.30;105.47;;;12.00;92.30;;;;;;5034877;28;20058;-74
2022/05/13 03:51:54;;;;;;;117.82;106.65;;;12.00;92.50;;;;;;5016879;28;20081;-74
2022/05/13 03:54:21;;;;;;;119.25;107.60;;;12.00;92.50;;;;;;5034407;28;20172;-74
2022/05/13 03:56:47;;;;;;;117.85;106.38;;;12.00;92.70;;;;;;5016295;28;20053;-74
2022/05/13 03:59:14;;;;;;;116.85;105.47;;;12.00;92.80;;;;;;5016230;28;20045;-74
2022/05/13 04:01:41;;;;;;;116.45;105.00;;;12.00;92.90;;;;;;5034122;28;20511;-74
2022/05/13 04:04:08;;;;;;;114.55;103.55;;;12.10;92.90;;;;;;5016689;28;20508;-74
2022/05/13 04:09:21;;;;;;;115.68;104.93;;;12.00;93.00;;;;;;5016377;28;20405;-74
2022/05/13 04:17:38;;;;;;;114.03;102.95;;;12.10;93.20;;;;;;5015630;28;21091;-74
2022/05/13 04:20:06;;;;;;;115.03;103.78;;;12.00;93.20;;;;;;5034626;28;20503;-74
2022/05/13 04:22:33;;;;;;;115.13;104.18;;;12.00;93.40;;;;;;5016556;28;20056;-74
2022/05/13 04:25:01;;;;;;;114.88;103.43;;;12.10;93.50;;;;;;5016896;28;20053;-74
2022/05/13 04:27:29;;;;;;;114.43;103.32;;;12.10;93.50;;;;;;5016112;28;20096;-74
2022/05/13 04:29:55;;;;;;;115.45;104.40;;;12.10;93.60;;;;;;5016500;28;20467;-74
2022/05/13 04:32:22;;;;;;;115.05;104.03;;;12.10;93.80;;;;;;5034733;28;20058;-74
2022/05/13 04:34:49;;;;;;;115.40;104.22;;;12.10;93.80;;;;;;5000040;28;20056;-74
2022/05/13 04:37:16;;;;;;;118.97;107.55;;;12.00;93.80;;;;;;5016115;28;20057;-74
2022/05/13 04:39:43;;;;;;;116.40;105.10;;;12.10;94.00;;;;;;5016327;28;20057;-74
2022/05/13 04:44:58;;;;;;;113.88;102.93;;;12.10;94.10;;;;;;4990383;28;20057;-74
2022/05/13 04:50:12;;;;;;;115.38;103.97;;;12.10;94.20;;;;;;5014987;28;20575;-74
2022/05/13 04:52:39;;;;;;;117.10;105.63;;;12.10;94.40;;;;;;5033788;28;20092;-74
2022/05/13 04:55:07;;;;;;;117.78;106.15;;;12.10;94.40;;;;;;5015074;28;20074;-74
2022/05/13 04:57:35;;;;;;;116.65;105.10;;;12.10;94.50;;;;;;5015742;28;20056;-74
2022/05/13 05:00:02;;;;;;;118.25;106.45;;;12.20;94.70;;;;;;5033900;28;20054;-74
2022/05/13 05:02:29;;;;;;;118.57;106.63;;;12.10;94.70;;;;;;5015261;28;20120;-74
2022/05/13 05:04:56;;;;;;;116.50;105.35;;;12.20;94.80;;;;;;5033413;28;20081;-74
2022/05/13 05:07:23;;;;;;;118.63;107.18;;;12.20;94.90;;;;;;5032778;28;20075;-74
2022/05/13 05:09:50;;;;;;;119.10;107.70;;;12.20;94.90;;;;;;5012795;28;20736;-74
2022/05/13 05:12:17;;;;;;;119.15;107.30;;;12.30;95.00;;;;;;5010050;28;20129;-74
2022/05/13 05:14:45;;;;;;;118.40;107.07;;;12.20;95.00;;;;;;5004743;28;20051;-74
2022/05/13 05:17:12;;;;;;;119.18;107.05;;;12.20;95.10;;;;;;4995853;28;20054;-74
2022/05/13 05:19:39;;;;;;;118.80;106.93;;;12.30;95.10;;;;;;4995403;28;20070;-74
2022/05/13 05:22:12;;;;;;;118.20;106.85;;;12.30;95.10;;;;;;4997173;28;20053;-74
2022/05/13 05:24:39;;;;;;;117.13;106.05;;;12.30;95.20;;;;;;5013467;28;20133;-74
2022/05/13 05:27:09;;;;;;;119.70;107.95;;;12.30;95.20;;;;;;4994529;28;20133;-74
2022/05/13 05:29:36;;;;;;;117.07;105.55;;;12.40;95.30;;;;;;5007896;28;20058;-74
2022/05/13 05:32:06;;;;;;;116.57;105.45;;;12.40;95.30;;;;;;5014610;28;20571;-74
2022/05/13 05:34:33;;;;;;;115.75;104.50;;;12.40;95.40;;;;;;5031620;28;20050;-74
2022/05/13 05:37:00;;;;;;;118.97;107.00;;;12.40;95.30;;;;;;5032184;28;20050;-74
2022/05/13 05:39:27;;;;;;;120.75;109.10;;;12.40;95.30;;;;;;5012815;28;20141;-74
2022/05/13 05:41:54;;;;;;;119.72;108.05;;;12.50;95.40;;;;;;5013409;28;20049;-75
2022/05/13 05:44:21;;;;;;;122.25;109.72;;;12.50;95.50;;;;;;5012245;28;20089;-73
2022/05/13 05:46:48;;;;;;;122.40;110.63;;;12.50;95.50;;;;;;5012749;28;20621;-74
2022/05/13 05:49:16;;;;;;;120.40;108.50;;;12.60;95.70;;;;;;5013058;28;20046;-73
2022/05/13 05:51:43;;;;;;;119.80;107.80;;;12.60;95.80;;;;;;5012261;28;20057;-74
2022/05/13 05:59:39;;;;;;;122.50;110.10;;;12.80;96.00;;;;;;5003703;28;20133;-75
2022/05/13 06:02:07;;;;;;;119.82;107.72;;;12.80;95.80;;;;;;5009196;28;20053;-74
2022/05/13 06:04:35;;;;;;;123.53;110.60;;;12.90;96.00;;;;;;5003275;28;20046;-74
2022/05/13 06:07:03;;;;;;;121.90;109.85;;;13.00;95.60;;;;;;5014273;28;20050;-75
2022/05/13 06:09:30;;;;;;;117.40;105.88;;;13.00;95.50;;;;;;5030323;28;20046;-75
2022/05/13 06:11:57;;;;;;;117.93;106.63;;;13.10;95.50;;;;;;4997377;28;20523;-74
2022/05/13 06:14:24;;;;;;;118.85;107.35;;;13.20;95.40;;;;;;5026313;28;20149;-75
2022/05/13 06:16:51;;;;;;;119.82;107.93;;;13.20;95.20;;;;;;5003389;28;20062;-75
2022/05/13 06:19:18;;;;;;;117.07;105.65;;;13.30;95.10;;;;;;5029944;28;20046;-75
2022/05/13 06:21:47;;;;;;;118.20;106.70;;;13.40;95.10;;;;;;5017604;28;20136;-76
2022/05/13 06:24:14;;;;;;;118.93;107.22;;;13.40;95.10;;;;;;5015311;28;20049;-75
2022/05/13 06:26:41;;;;;;;118.45;107.03;;;13.40;95.00;;;;;;5003168;28;20146;-74
2022/05/13 06:29:09;;;;;;;119.38;107.82;;;13.50;94.80;;;;;;5034322;28;20056;-75
2022/05/13 06:31:36;;;;;;;117.78;106.22;;;13.50;94.60;;;;;;5017692;28;20057;-75
2022/05/13 06:34:03;;;;;;;120.95;109.40;;;13.60;94.60;;;;;;5011375;28;20051;-76
2022/05/13 06:36:31;;;;;;;119.50;107.93;;;13.60;94.50;;;;;;5015667;28;20065;-75
2022/05/13 06:39:00;;;;;;;120.60;108.63;;;13.60;94.30;;;;;;5011372;28;20132;-73
2022/05/13 06:41:27;;;;;;;118.00;106.90;;;13.70;94.40;;;;;;5014034;28;20081;-75
2022/05/13 06:43:54;;;;;;;119.53;107.93;;;13.70;94.20;;;;;;5013550;28;20054;-74
2022/05/13 06:46:22;;;;;;;114.28;103.68;;;13.70;94.10;;;;;;5030907;28;20108;-71
2022/05/13 06:48:50;;;;;;;114.57;103.72;;;13.80;93.50;;;;;;5005692;28;20053;-75
2022/05/13 06:51:17;;;;;;;117.35;106.75;;;13.90;92.40;;;;;;5031994;28;20054;-74
2022/05/13 06:53:44;;;;;;;120.00;108.88;;;13.90;91.90;;;;;;5014905;28;20049;-73
2022/05/13 06:56:13;;;;;;;118.15;107.47;;;13.90;91.70;;;;;;5015438;28;20551;-74
2022/05/13 06:58:40;;;;;;;117.65;106.82;;;14.00;91.60;;;;;;5015471;28;20078;-76
2022/05/13 07:01:07;;;;;;;119.10;108.13;;;14.00;90.90;;;;;;5015470;28;20054;-74
2022/05/13 07:03:34;;;;;;;117.28;106.25;;;14.00;90.70;;;;;;5015730;28;20057;-77
2022/05/13 07:06:01;;;;;;;118.07;107.00;;;14.00;90.70;;;;;;5016670;28;20054;-77
2022/05/13 07:08:28;;;;;;;118.22;107.05;;;14.00;90.50;;;;;;5016772;28;20100;-79
2022/05/13 07:10:55;;;;;;;117.68;106.68;;;14.10;90.30;;;;;;5017245;28;20133;-76
2022/05/13 07:13:24;;;;;;;114.38;103.40;;;14.10;90.40;;;;;;5017177;28;20042;-75
2022/05/13 07:15:51;;;;;;;114.70;104.28;;;14.10;90.00;;;;;;5000625;28;20061;-75
2022/05/13 07:18:18;;;;;;;118.10;107.10;;;14.10;89.70;;;;;;5034208;28;20864;-75
2022/05/13 07:20:45;;;;;;;116.65;105.75;;;14.10;90.40;;;;;;5017143;28;20594;-76
2022/05/13 07:23:12;;;;;;;115.35;104.85;;;14.10;90.10;;;;;;5014243;28;20042;-76
2022/05/13 07:25:39;;;;;;;116.95;106.05;;;14.20;90.10;;;;;;5013747;28;20140;-77
2022/05/13 07:28:06;;;;;;;117.18;106.47;;;14.20;90.10;;;;;;5000135;28;20530;-75
2022/05/13 07:30:34;;;;;;;115.32;104.72;;;14.20;90.00;;;;;;5014650;28;20064;-74
2022/05/13 07:33:01;;;;;;;116.43;105.43;;;14.30;89.60;;;;;;5014451;28;20046;-74
2022/05/13 07:35:28;;;;;;;115.20;104.60;;;14.20;89.20;;;;;;5014890;28;20049;-74
2022/05/13 07:37:55;;;;;;;116.65;106.18;;;14.20;89.10;;;;;;5015203;28;20080;-74
2022/05/13 07:43:07;;;;;;;115.45;104.75;;;14.20;90.10;;;;;;5014428;28;20512;-77
2022/05/13 07:45:36;;;;;;;116.55;105.70;;;14.20;90.20;;;;;;5016323;28;20058;-80
2022/05/13 07:48:03;;;;;;;116.07;105.47;;;14.20;90.30;;;;;;5013114;28;20141;-75
2022/05/13 07:50:30;;;;;;;119.20;108.05;;;14.30;89.80;;;;;;5015098;28;20053;-75
2022/05/13 07:52:57;;;;;;;120.75;109.78;;;14.40;89.20;;;;;;5014043;28;20061;-75
2022/05/13 07:55:24;;;;;;;121.10;110.03;;;14.50;88.10;;;;;;5014596;28;20057;-75
2022/05/13 07:57:51;;;;;;;117.65;106.82;;;14.60;87.80;;;;;;5008814;28;20088;-74
2022/05/13 08:00:27;;;;;;;120.28;109.10;;;14.60;86.90;;;;;;5018672;28;20137;-75
2022/05/13 08:02:59;;;;;;;117.90;107.05;;;14.70;87.00;;;;;;5008784;28;20062;-73
2022/05/13 08:05:31;;;;;;;115.10;104.53;;;14.70;86.60;;;;;;5008358;28;20055;-74
2022/05/13 08:08:03;;;;;;;113.38;102.63;;;14.70;86.70;;;;;;5031967;28;20054;-74
2022/05/13 08:10:30;;;;;;;117.10;106.30;;;14.70;86.80;;;;;;5012304;28;20073;-74
2022/05/13 08:12:57;;;;;;;117.13;106.35;;;14.70;87.00;;;;;;5032357;28;20058;-74
2022/05/13 08:15:24;;;;;;;117.47;106.78;;;14.70;86.90;;;;;;5014124;28;20052;-74
2022/05/13 08:17:51;;;;;;;113.88;103.28;;;14.70;87.00;;;;;;5015336;28;20139;-74
2022/05/13 08:20:20;;;;;;;117.28;106.78;;;14.70;87.20;;;;;;5016296;28;20046;-74
2022/05/13 08:22:47;;;;;;;116.10;105.50;;;14.80;86.90;;;;;;5031017;28;20054;-74
2022/05/13 08:25:14;;;;;;;113.50;103.03;;;14.80;86.70;;;;;;5015633;28;20046;-74
2022/05/13 08:27:41;;;;;;;115.28;104.88;;;14.90;85.70;;;;;;5014375;28;20050;-74
2022/05/13 08:30:10;;;;;;;118.38;107.72;;;14.90;85.50;;;;;;5032626;28;20061;-74
2022/05/13 08:32:37;;;;;;;117.57;107.05;;;14.90;85.60;;;;;;5014834;28;20054;-75
2022/05/13 08:35:05;;;;;;;118.00;107.35;;;14.90;86.00;;;;;;5014327;28;20050;-74
2022/05/13 08:37:39;;;;;;;120.40;109.75;;;15.00;86.30;;;;;;5013483;28;20524;-74
2022/05/13 08:40:07;;;;;;;119.40;108.45;;;15.10;85.50;;;;;;5066234;22;20064;31
2022/05/13 08:42:39;;;;;;;118.60;108.30;;;15.10;85.50;;;;;;5011037;28;20062;-74
2022/05/13 08:45:09;;;;;;;118.90;108.40;;;15.20;84.70;;;;;;4995603;28;20123;-74
2022/05/13 08:47:48;;;;;;;116.18;105.82;;;15.20;83.50;;;;;;5010890;28;20583;-74
2022/05/13 08:50:22;;;;;;;115.10;104.82;;;15.30;82.90;;;;;;5011640;28;20082;-74
2022/05/13 08:53:08;;;;;;;116.18;105.93;;;15.40;81.80;;;;;;4994485;28;20059;-74
2022/05/13 08:55:40;;;;;;;117.85;107.30;;;15.40;80.90;;;;;;4992088;28;20077;-74
2022/05/13 08:58:13;;;;;;;121.88;111.50;;;15.40;81.50;;;;;;4977254;28;20074;-74
2022/05/13 09:00:42;;;;;;;119.07;108.75;;;15.20;81.00;;;;;;4977305;28;20141;-75
2022/05/13 09:03:18;;;;;;;119.10;108.90;;;15.30;80.50;;;;;;4993953;28;20062;-74
2022/05/13 09:05:49;;;;;;;117.50;107.00;;;15.20;80.80;;;;;;5011473;28;20504;-74
2022/05/13 09:08:18;;;;;;;120.38;109.93;;;15.20;80.10;;;;;;4993260;28;20054;-74
2022/05/13 09:10:57;;;;;;;122.38;111.88;;;15.10;80.80;;;;;;4992284;28;20140;-74
2022/05/13 09:13:33;;;;;;;119.32;108.82;;;15.20;80.50;;;;;;4993269;28;20051;-73
2022/05/13 09:16:01;;;;;;;123.35;112.25;;;15.20;80.10;;;;;;4990933;28;20058;-74
2022/05/13 09:18:34;;;;;;;120.35;109.75;;;15.20;79.90;;;;;;5008117;28;20057;-74
2022/05/13 09:21:03;;;;;;;125.03;114.35;;;15.30;80.20;;;;;;4989728;28;20060;-74
2022/05/13 09:23:32;;;;;;;124.15;113.47;;;15.30;80.00;;;;;;4999642;28;20126;-74
2022/05/13 09:26:07;;;;;;;122.03;111.60;;;15.20;80.40;;;;;;4969462;28;20051;-74
2022/05/13 09:28:37;;;;;;;124.53;113.55;;;15.30;79.90;;;;;;4987379;28;20553;-74
2022/05/13 09:31:18;;;;;;;120.72;110.22;;;15.40;79.40;;;;;;4988051;28;20594;-74
2022/05/13 09:33:47;;;;;;;119.30;108.63;;;15.40;79.60;;;;;;4973970;28;20054;-74
2022/05/13 09:36:35;;;;;;;120.72;110.18;;;15.40;79.30;;;;;;4979661;28;20104;-74
2022/05/13 09:39:22;;;;;;;119.97;109.57;;;15.50;79.90;;;;;;4995876;28;20058;-74
2022/05/13 09:41:52;;;;;;;117.32;107.15;;;15.50;79.00;;;;;;4990518;28;20053;-74
2022/05/13 09:44:21;;;;;;;119.43;108.93;;;15.60;79.10;;;;;;4994785;28;20141;-74
2022/05/13 09:46:50;;;;;;;114.50;104.53;;;15.60;78.20;;;;;;4978238;28;20065;-74
2022/05/13 09:49:27;;;;;;;118.60;108.03;;;15.70;78.00;;;;;;5012484;28;20059;-74
2022/05/13 09:51:57;;;;;;;116.75;106.38;;;15.70;77.80;;;;;;4995069;28;20137;-74
2022/05/13 09:54:31;;;;;;;116.93;106.28;;;15.70;78.20;;;;;;4994856;28;20054;-74
2022/05/13 09:57:07;;;;;;;118.75;108.38;;;15.70;77.90;;;;;;5012111;28;20055;-74
2022/05/13 09:59:41;;;;;;;116.82;106.35;;;15.80;78.20;;;;;;4994071;28;20055;-74
2022/05/13 10:02:19;;;;;;;117.70;107.18;;;15.90;78.50;;;;;;4993992;28;20050;-74
2022/05/13 10:04:51;;;;;;;118.00;107.60;;;15.90;77.90;;;;;;5010346;28;20077;-74
2022/05/13 10:07:19;;;;;;;118.70;108.03;;;15.90;78.50;;;;;;4994137;28;20050;-74
2022/05/13 10:15:28;;;;;;;116.88;106.57;;;16.00;78.60;;;;;;4993614;28;20540;-74
2022/05/13 10:18:02;;;;;;;118.15;107.85;;;16.10;77.00;;;;;;4993491;28;20129;-74
2022/05/13 10:20:35;;;;;;;117.68;107.22;;;16.10;76.80;;;;;;4993647;28;20129;-74
2022/05/13 10:23:08;;;;;;;117.95;107.45;;;16.20;77.00;;;;;;5011487;28;20142;-74
2022/05/13 10:25:47;;;;;;;117.88;107.60;;;16.20;76.60;;;;;;4994433;28;20055;-74
2022/05/13 10:28:17;;;;;;;120.07;109.57;;;16.20;77.00;;;;;;4991291;28;20070;-74
2022/05/13 10:30:49;;;;;;;116.72;106.55;;;16.20;77.40;;;;;;5011007;28;20201;-75
2022/05/13 10:33:23;;;;;;;116.82;106.38;;;16.20;77.90;;;;;;4994453;28;20126;-74
2022/05/13 10:35:57;;;;;;;118.95;108.70;;;16.30;77.00;;;;;;4993903;28;20130;-74
2022/05/13 10:38:31;;;;;;;120.90;110.68;;;16.30;76.70;;;;;;4993253;28;20082;-75
2022/05/13 10:41:10;;;;;;;118.13;107.68;;;16.20;77.40;;;;;;5007282;28;20538;-75
2022/05/13 10:43:41;;;;;;;117.25;107.20;;;16.20;77.80;;;;;;5007946;28;20181;-74
2022/05/13 10:46:31;;;;;;;117.72;107.18;;;16.20;77.40;;;;;;4993268;28;20569;-75
2022/05/13 10:48:58;;;;;;;115.45;105.47;;;16.20;78.80;;;;;;5009357;28;20113;-74
2022/05/13 10:51:34;;;;;;;116.80;106.50;;;16.20;79.20;;;;;;4993403;28;20058;-73
2022/05/13 10:54:15;;;;;;;116.75;106.60;;;16.20;78.60;;;;;;5014250;28;20051;-73
2022/05/13 10:56:53;;;;;;;119.05;108.75;;;16.30;77.90;;;;;;5011768;28;20074;-74
2022/05/13 10:59:39;;;;;;;120.60;110.20;;;16.20;77.50;;;;;;5012096;28;20046;-74
2022/05/13 11:02:34;;;;;;;114.20;104.47;;;16.20;78.00;;;;;;5012250;28;20050;-75
2022/05/13 11:05:08;;;;;;;117.68;107.22;;;16.20;77.90;;;;;;4997185;28;20460;-75
2022/05/13 11:07:43;;;;;;;119.47;109.28;;;16.20;77.90;;;;;;4996744;28;20082;-75
2022/05/13 11:10:21;;;;;;;119.70;109.03;;;16.20;78.00;;;;;;4996147;28;20062;-75
2022/05/13 11:12:56;;;;;;;119.75;109.53;;;16.20;77.70;;;;;;5010524;28;20484;-75
2022/05/13 11:15:33;;;;;;;121.88;111.55;;;16.20;77.80;;;;;;5012465;28;20118;-74
2022/05/13 11:18:10;;;;;;;121.00;110.72;;;16.20;77.10;;;;;;4995438;28;20050;-74
2022/05/13 11:20:46;;;;;;;122.93;112.63;;;16.20;77.70;;;;;;5013858;28;20073;-74
2022/05/13 11:23:26;;;;;;;116.40;105.93;;;16.20;77.50;;;;;;5012811;28;20666;-74
2022/05/13 11:26:08;;;;;;;121.70;111.00;;;16.30;77.00;;;;;;5011941;28;20417;-74
2022/05/13 11:28:51;;;;;;;121.10;110.65;;;16.40;75.90;;;;;;4994884;28;20058;-74
2022/05/13 11:31:35;;;;;;;119.70;109.05;;;16.40;75.50;;;;;;4995242;28;20073;-75
2022/05/13 11:34:11;;;;;;;120.43;109.90;;;16.40;76.60;;;;;;4996608;28;20527;-75
2022/05/13 11:36:44;;;;;;;123.40;112.70;;;16.40;76.80;;;;;;4994828;28;20053;-75
2022/05/13 11:39:46;;;;;;;122.53;112.28;;;16.50;75.00;;;;;;4994213;28;20134;-75
2022/05/13 11:42:30;;;;;;;117.13;106.47;;;16.50;74.70;;;;;;4989998;28;20086;-75
2022/05/13 11:45:17;;;;;;;120.13;109.67;;;16.50;75.10;;;;;;5009015;28;20129;-75
2022/05/13 11:47:56;;;;;;;117.90;107.50;;;16.50;75.40;;;;;;5012116;28;20050;-75
2022/05/13 11:50:24;;;;;;;118.00;107.70;;;16.50;75.60;;;;;;5001454;28;20050;-75
2022/05/13 11:52:53;;;;;;;119.43;108.93;;;16.50;75.90;;;;;;5004437;28;20055;-76
2022/05/13 11:55:43;;;;;;;118.82;108.63;;;16.40;76.30;;;;;;4985595;28;20075;-75
2022/05/13 11:58:51;;;;;;;120.60;109.78;;;16.40;74.60;;;;;;4995032;28;20501;-75
2022/05/13 12:01:52;;;;;;;121.50;111.22;;;16.40;74.80;;;;;;4993895;28;20535;-75
2022/05/13 12:04:31;;;;;;;118.47;108.30;;;16.40;74.00;;;;;;4993748;28;20053;-75
2022/05/13 12:07:00;;;;;;;122.20;111.97;;;16.30;73.60;;;;;;4993191;28;20074;-75
2022/05/13 12:09:31;;;;;;;121.35;110.53;;;16.30;74.10;;;;;;4995071;28;20559;-75
2022/05/13 12:12:08;;;;;;;119.07;108.78;;;16.30;74.00;;;;;;5012908;28;20054;-75
2022/05/13 12:14:49;;;;;;;119.93;109.80;;;16.40;72.70;;;;;;5013704;28;20073;-75
2022/05/13 12:17:27;;;;;;;120.05;109.93;;;16.40;72.80;;;;;;4992170;28;20464;-75
2022/05/13 12:20:03;;;;;;;119.28;109.07;;;16.40;72.40;;;;;;4992698;28;20129;-75
2022/05/13 12:22:48;;;;;;;117.43;107.18;;;16.30;72.70;;;;;;4992582;28;20055;-75
2022/05/13 12:25:30;;;;;;;;;;;16.30;73.20;;;;;;4993575;28;20051;-75
2022/05/13 12:28:04;;;;;;;119.45;108.97;;;16.40;74.20;;;;;;5008100;28;20024;-75
2022/05/13 12:30:36;;;;;;;120.33;109.87;;;16.40;73.60;;;;;;4994916;28;20093;-75
2022/05/13 12:33:37;;;;;;;119.60;109.20;;;16.40;73.30;;;;;;5012507;28;20590;-75
2022/05/13 12:39:07;;;;;;;120.82;110.40;;;16.50;72.90;;;;;;4993886;28;20542;-73
2022/05/13 12:41:54;;;;;;;120.53;110.53;;;16.50;72.80;;;;;;4993082;28;20489;-74
2022/05/13 12:44:34;;;;;;;120.65;110.20;;;16.60;71.40;;;;;;4994595;28;20058;-74
2022/05/13 12:47:23;;;;;;;124.13;113.32;;;16.70;69.50;;;;;;5012285;28;20122;-74
2022/05/13 12:50:02;;;;;;;122.93;112.65;;;16.70;68.80;;;;;;4986089;28;20221;-74
2022/05/13 12:52:39;;;;;;;121.70;111.32;;;16.80;69.80;;;;;;4992577;28;20140;-74
2022/05/13 12:55:12;;;;;;;125.57;114.82;;;16.90;68.60;;;;;;4985882;28;20058;-74
2022/05/13 12:57:43;;;;;;;121.70;111.40;;;16.90;68.40;;;;;;4985407;28;20054;-74
2022/05/13 13:00:15;;;;;;;126.05;115.30;;;16.90;68.80;;;;;;4988808;28;20085;-74